Time;durP1;ratioP1;P1;durP2;ratioP2;P2;SDS_P1;SDS_P2;PMS_P1;PMS_P2;Temp;Humidity;BMP_temperature;BMP_pressure;BME280_temperature;BME280_humidity;BME280_pressure;Samples;Min_cycle;Max_cycle;Signal;HPM_P1;HPM_P2
2024/01/26 00:00:49;;;;;;;21.00;17.40;;;;;;;9.94;99.13;102277.31;5008365;28;20038;-59
2024/01/26 00:03:15;;;;;;;18.98;16.40;;;;;;;9.94;99.06;102278.22;5010318;28;20030;-59
2024/01/26 00:05:40;;;;;;;18.05;16.15;;;;;;;9.95;98.99;102273.50;5003705;28;20444;-59
2024/01/26 00:08:05;;;;;;;18.77;16.80;;;;;;;9.96;99.27;102267.72;4998091;28;20030;-59
2024/01/26 00:10:30;;;;;;;17.65;15.85;;;;;;;9.97;98.88;102258.34;4991046;28;20064;-59
2024/01/26 00:12:56;;;;;;;17.63;15.65;;;;;;;9.97;98.74;102263.03;4990838;28;20457;-59
2024/01/26 00:15:21;;;;;;;20.33;16.10;;;;;;;9.98;98.78;102260.06;5008648;28;20034;-59
2024/01/26 00:17:47;;;;;;;18.73;16.50;;;;;;;9.99;98.85;102261.75;5009882;28;20524;-58
2024/01/26 00:20:13;;;;;;;17.55;15.60;;;;;;;10.01;98.31;102262.38;5004546;28;20077;-58
2024/01/26 00:22:38;;;;;;;17.35;15.52;;;;;;;10.01;98.59;102267.09;5005521;28;20378;-58
2024/01/26 00:25:04;;;;;;;16.35;14.68;;;;;;;10.01;98.33;102265.16;4998116;28;20097;-59
2024/01/26 00:27:30;;;;;;;17.45;15.43;;;;;;;10.00;98.50;102260.69;5003484;28;20030;-60
2024/01/26 00:29:55;;;;;;;16.50;13.88;;;;;;;10.00;98.49;102255.13;5012224;28;20772;-60
2024/01/26 00:32:21;;;;;;;15.57;13.98;;;;;;;10.00;98.36;102260.69;5009218;28;20536;-60
2024/01/26 00:34:46;;;;;;;15.77;14.15;;;;;;;10.01;98.30;102264.31;5006279;28;20504;-60
2024/01/26 00:37:12;;;;;;;15.98;14.35;;;;;;;10.00;98.33;102260.69;5006162;28;20022;-60
2024/01/26 00:39:37;;;;;;;16.45;14.38;;;;;;;10.01;98.27;102245.75;5004153;28;20079;-60
2024/01/26 00:42:03;;;;;;;16.58;14.65;;;;;;;10.01;98.26;102259.63;5017643;28;20485;-60
2024/01/26 00:44:28;;;;;;;15.60;13.95;;;;;;;10.01;98.30;102256.84;5005382;28;20068;-60
2024/01/26 00:46:53;;;;;;;16.23;13.30;;;;;;;10.01;98.33;102247.66;5007396;28;20078;-60
2024/01/26 00:49:18;;;;;;;15.88;14.27;;;;;;;10.01;98.23;102245.75;5006720;28;20037;-60
2024/01/26 00:51:44;;;;;;;15.05;13.38;;;;;;;10.02;98.54;102243.81;5010105;28;20030;-60
2024/01/26 00:54:09;;;;;;;14.27;12.77;;;;;;;10.02;98.15;102243.81;5006601;28;20034;-60
2024/01/26 00:56:34;;;;;;;15.68;13.15;;;;;;;10.03;98.11;102240.00;5015161;28;20038;-60
2024/01/26 00:59:00;;;;;;;14.85;12.48;;;;;;;10.04;98.18;102248.09;5009315;28;20112;-60
2024/01/26 01:01:26;;;;;;;13.70;12.20;;;;;;;10.04;97.98;102244.47;5009419;28;20026;-60
2024/01/26 01:03:51;;;;;;;13.18;11.77;;;;;;;10.04;97.86;102241.69;4994649;28;20038;-60
2024/01/26 01:06:16;;;;;;;14.52;12.02;;;;;;;10.03;98.01;102245.53;5008999;28;20037;-60
2024/01/26 01:08:42;;;;;;;12.77;11.52;;;;;;;10.05;97.73;102235.06;5009169;28;20034;-60
2024/01/26 01:11:07;;;;;;;12.70;10.95;;;;;;;10.04;97.67;102237.00;5008475;28;20021;-60
2024/01/26 01:13:33;;;;;;;11.27;10.18;;;;;;;10.06;97.51;102245.09;5008626;28;20480;-60
2024/01/26 01:16:00;;;;;;;12.20;11.00;;;;;;;10.06;97.49;102247.88;5009418;28;20101;-60
2024/01/26 01:18:26;;;;;;;12.60;10.80;;;;;;;10.06;97.45;102243.19;5005497;28;20034;-60
2024/01/26 01:20:51;;;;;;;11.60;10.40;;;;;;;10.06;97.43;102236.75;4997884;28;20037;-61
2024/01/26 01:23:16;;;;;;;10.88;9.80;;;;;;;10.07;97.25;102225.47;4989395;28;20034;-60
2024/01/26 01:25:42;;;;;;;11.45;10.35;;;;;;;10.08;97.37;102220.78;5005342;28;20120;-60
2024/01/26 01:28:07;;;;;;;10.27;9.13;;;;;;;10.10;96.90;102204.78;5028644;28;20153;-60
2024/01/26 01:30:33;;;;;;;10.63;9.63;;;;;;;10.08;96.87;102210.53;5028584;28;20458;-60
2024/01/26 01:32:58;;;;;;;10.65;9.23;;;;;;;10.09;96.88;102203.91;5028216;28;20036;-60
2024/01/26 01:35:23;;;;;;;9.77;8.88;;;;;;;10.08;96.77;102206.91;5028663;28;20025;-60
2024/01/26 01:37:48;;;;;;;9.32;8.35;;;;;;;10.08;96.58;102204.97;5008339;28;20117;-60
2024/01/26 01:40:14;;;;;;;9.18;8.30;;;;;;;10.10;96.58;102207.56;5007935;28;20439;-60
2024/01/26 01:42:41;;;;;;;9.10;8.25;;;;;;;10.09;96.55;102212.22;5008666;28;20156;-60
2024/01/26 01:45:14;;;;;;;8.52;7.68;;;;;;;10.07;96.35;102208.81;5008142;28;20078;-61
2024/01/26 01:47:41;;;;;;;7.72;7.03;;;;;;;10.10;96.11;102199.22;5009171;28;20026;-60
2024/01/26 01:50:10;;;;;;;7.80;7.00;;;;;;;10.11;96.23;102200.06;5001932;28;20550;-60
2024/01/26 01:52:42;;;;;;;8.10;7.32;;;;;;;10.12;95.97;102193.44;4988601;28;20102;-60
2024/01/26 01:55:14;;;;;;;8.50;7.70;;;;;;;10.12;96.28;102199.00;4989139;28;20400;-60
2024/01/26 01:57:41;;;;;;;7.38;6.68;;;;;;;10.11;95.97;102186.22;4989549;28;20473;-60
2024/01/26 02:00:15;;;;;;;8.45;7.55;;;;;;;10.12;95.85;102194.31;4988653;28;20023;-60
2024/01/26 02:02:45;;;;;;;7.93;7.15;;;;;;;10.10;95.90;102185.34;5013189;28;20380;-60
2024/01/26 02:05:11;;;;;;;7.88;7.13;;;;;;;10.11;95.92;102175.97;4994957;28;20022;-60
2024/01/26 02:07:36;;;;;;;7.00;6.47;;;;;;;10.13;95.69;102178.50;4991488;28;20035;-60
2024/01/26 02:10:04;;;;;;;7.80;7.00;;;;;;;10.10;95.85;102174.25;5003250;28;20052;-61
2024/01/26 02:12:29;;;;;;;7.47;6.72;;;;;;;10.07;95.72;102170.00;5008346;28;20400;-60
2024/01/26 02:14:54;;;;;;;7.82;6.68;;;;;;;10.07;95.68;102170.00;5009071;28;20029;-61
2024/01/26 02:17:20;;;;;;;7.32;6.30;;;;;;;10.04;95.68;102156.53;5012057;28;20061;-60
2024/01/26 02:19:45;;;;;;;6.50;5.90;;;;;;;10.04;95.77;102155.69;5011962;28;20028;-61
2024/01/26 02:22:10;;;;;;;7.30;6.10;;;;;;;10.06;95.63;102161.88;5011170;28;20030;-60
2024/01/26 02:24:35;;;;;;;7.45;6.03;;;;;;;10.08;95.49;102152.25;5070053;28;20035;-60
2024/01/26 02:27:01;;;;;;;6.20;5.63;;;;;;;10.07;95.80;102150.56;4996414;28;20359;-61
2024/01/26 02:29:26;;;;;;;5.68;5.18;;;;;;;10.10;95.42;102160.38;4991713;28;20026;-61
2024/01/26 02:31:51;;;;;;;6.45;5.38;;;;;;;10.08;95.29;102149.50;5030401;28;20049;-60
2024/01/26 02:34:17;;;;;;;6.88;5.53;;;;;;;10.09;95.44;102142.88;4998880;28;20056;-60
2024/01/26 02:36:43;;;;;;;5.15;4.75;;;;;;;10.11;95.37;102147.38;5001991;28;20022;-61
2024/01/26 02:39:09;;;;;;;5.22;4.72;;;;;;;10.11;95.24;102139.03;5012801;28;20046;-61
2024/01/26 02:41:35;;;;;;;7.38;5.10;;;;;;;10.12;95.14;102132.41;5010576;28;20033;-60
2024/01/26 02:44:01;;;;;;;5.88;5.32;;;;;;;10.10;95.39;102124.31;5028263;28;20029;-60
2024/01/26 02:46:27;;;;;;;5.90;5.13;;;;;;;10.11;95.33;102123.25;5042998;27;20045;-60
2024/01/26 02:48:52;;;;;;;5.55;5.05;;;;;;;10.11;95.25;102127.94;5010868;28;20045;-60
2024/01/26 02:51:17;;;;;;;6.38;4.82;;;;;;;10.11;95.05;102123.25;5011659;28;20029;-60
2024/01/26 02:53:43;;;;;;;5.13;4.68;;;;;;;10.11;95.12;102114.06;5011177;28;20048;-60
2024/01/26 02:56:08;;;;;;;5.40;4.90;;;;;;;10.11;95.01;102116.84;5008069;28;20500;-60
2024/01/26 02:58:34;;;;;;;4.82;4.43;;;;;;;10.11;95.14;102114.91;4996130;28;20478;-60
2024/01/26 03:01:01;;;;;;;5.20;4.65;;;;;;;10.12;95.26;102107.44;4991645;28;20031;-60
2024/01/26 03:03:26;;;;;;;6.03;4.40;;;;;;;10.11;95.14;102108.53;4990881;28;20522;-60
2024/01/26 03:05:52;;;;;;;5.72;5.22;;;;;;;10.12;95.09;102097.19;4991843;28;20102;-60
2024/01/26 03:08:17;;;;;;;6.10;5.00;;;;;;;10.13;95.25;102095.28;5028204;28;20018;-60
2024/01/26 03:10:42;;;;;;;4.80;4.30;;;;;;;10.14;95.13;102097.84;5030847;28;20037;-60
2024/01/26 03:13:07;;;;;;;5.18;4.70;;;;;;;10.13;95.26;102100.81;5031520;28;20034;-61
2024/01/26 03:15:33;;;;;;;6.88;4.97;;;;;;;10.15;95.08;102099.53;5072737;28;20140;-60
2024/01/26 03:17:58;;;;;;;5.85;4.97;;;;;;;10.16;95.06;102083.75;5010916;28;20094;-60
2024/01/26 03:20:23;;;;;;;6.13;4.68;;;;;;;10.15;94.68;102080.13;5022637;28;20101;-60
2024/01/26 03:22:49;;;;;;;5.80;5.15;;;;;;;10.17;94.86;102063.25;5011004;28;20042;-60
2024/01/26 03:25:14;;;;;;;5.35;4.85;;;;;;;10.18;94.84;102067.72;5016471;28;20069;-60
2024/01/26 03:27:39;;;;;;;7.35;5.10;;;;;;;10.19;94.91;102064.72;5031018;28;20032;-60
2024/01/26 03:30:05;;;;;;;5.68;4.82;;;;;;;10.16;94.92;102061.53;5030636;28;20029;-60
2024/01/26 03:32:30;;;;;;;5.53;5.03;;;;;;;10.16;95.06;102050.44;5030075;28;20029;-61
2024/01/26 03:34:56;;;;;;;5.95;5.30;;;;;;;10.17;95.05;102049.38;4996092;28;20385;-60
2024/01/26 03:37:22;;;;;;;5.80;5.10;;;;;;;10.17;95.14;102057.69;5002306;28;20029;-60
2024/01/26 03:39:47;;;;;;;6.25;5.10;;;;;;;10.17;95.14;102050.22;5029711;28;20026;-60
2024/01/26 03:42:13;;;;;;;6.07;5.00;;;;;;;10.19;95.04;102059.19;5030674;28;20037;-60
2024/01/26 03:44:39;;;;;;;6.38;4.88;;;;;;;10.22;94.94;102055.13;5025759;28;20046;-60
2024/01/26 03:47:05;;;;;;;5.72;5.13;;;;;;;10.24;94.93;102052.97;5010668;28;20457;-60
2024/01/26 03:49:32;;;;;;;5.40;4.90;;;;;;;10.22;94.70;102055.97;5009948;28;20050;-60
2024/01/26 03:51:57;;;;;;;6.38;5.32;;;;;;;10.23;95.05;102045.72;5020460;28;20022;-59
2024/01/26 03:54:22;;;;;;;6.10;5.50;;;;;;;10.26;95.02;102050.88;5010065;28;20041;-58
2024/01/26 03:56:48;;;;;;;7.72;5.47;;;;;;;10.26;94.79;102046.16;5010748;28;20040;-60
2024/01/26 03:59:13;;;;;;;7.22;5.72;;;;;;;10.27;94.89;102038.69;5009358;28;20037;-60
2024/01/26 04:01:39;;;;;;;6.53;5.85;;;;;;;10.25;94.99;102027.78;5009733;28;20040;-59
2024/01/26 04:04:04;;;;;;;7.03;6.05;;;;;;;10.25;95.00;102025.00;5010083;28;20846;-59
2024/01/26 04:06:29;;;;;;;9.48;6.38;;;;;;;10.25;94.89;102019.47;5009161;28;20046;-59
2024/01/26 04:08:56;;;;;;;8.15;6.18;;;;;;;10.25;94.90;102024.16;5014849;28;20037;-59
2024/01/26 04:11:21;;;;;;;8.02;6.30;;;;;;;10.25;95.07;102030.56;5014383;28;20030;-60
2024/01/26 04:13:47;;;;;;;10.00;6.78;;;;;;;10.26;94.55;102020.34;5009249;28;20034;-59
2024/01/26 04:16:12;;;;;;;7.60;6.80;;;;;;;10.27;94.88;102008.16;5009794;28;20100;-59
2024/01/26 04:18:37;;;;;;;8.30;7.00;;;;;;;10.27;94.65;101999.84;5010074;28;20021;-59
2024/01/26 04:21:03;;;;;;;9.02;7.30;;;;;;;10.26;94.91;101999.00;5008992;28;20030;-59
2024/01/26 04:23:28;;;;;;;8.00;7.22;;;;;;;10.27;94.76;101992.34;5009912;28;20045;-59
2024/01/26 04:25:53;;;;;;;9.13;7.88;;;;;;;10.27;95.00;101977.63;5009984;28;20094;-59
2024/01/26 04:28:19;;;;;;;8.15;7.35;;;;;;;10.25;94.68;101975.06;5015474;28;20065;-59
2024/01/26 04:30:44;;;;;;;8.23;7.45;;;;;;;10.25;94.63;101965.91;5022944;28;20112;-59
2024/01/26 04:33:09;;;;;;;10.60;8.43;;;;;;;10.25;94.92;101969.50;5009905;28;20044;-59
2024/01/26 04:35:35;;;;;;;9.13;8.23;;;;;;;10.24;94.90;101978.03;5008924;28;20470;-59
2024/01/26 04:38:00;;;;;;;8.73;7.75;;;;;;;10.23;95.04;101962.47;5009152;28;20044;-59
2024/01/26 04:40:26;;;;;;;8.90;7.95;;;;;;;10.21;95.03;101964.63;5009593;28;20155;-59
2024/01/26 04:42:51;;;;;;;8.93;7.93;;;;;;;10.22;94.99;101958.00;5009478;28;20504;-59
2024/01/26 04:45:16;;;;;;;9.80;8.48;;;;;;;10.22;94.76;101953.31;5003920;28;20050;-59
2024/01/26 04:47:42;;;;;;;9.73;7.80;;;;;;;10.24;94.82;101958.63;5005213;28;20046;-59
2024/01/26 04:50:08;;;;;;;9.45;7.80;;;;;;;10.26;94.70;101959.28;5008750;28;20090;-59
2024/01/26 04:52:34;;;;;;;8.93;8.07;;;;;;;10.24;94.77;101965.00;5009172;28;20034;-59
2024/01/26 04:54:59;;;;;;;10.52;7.88;;;;;;;10.24;94.77;101965.00;5008641;28;20026;-59
2024/01/26 04:57:25;;;;;;;9.82;8.45;;;;;;;10.25;94.66;101954.78;5009491;28;20712;-60
2024/01/26 04:59:50;;;;;;;9.65;8.43;;;;;;;10.25;94.75;101955.63;5009322;28;20022;-59
2024/01/26 05:02:16;;;;;;;9.65;8.20;;;;;;;10.28;94.67;101951.56;5008733;28;20117;-59
2024/01/26 05:04:41;;;;;;;9.25;8.38;;;;;;;10.29;94.54;101958.81;5002594;28;20126;-60
2024/01/26 05:07:07;;;;;;;8.88;7.95;;;;;;;10.27;94.56;101956.28;5009107;28;20034;-59
2024/01/26 05:09:32;;;;;;;9.55;8.52;;;;;;;10.29;94.29;101950.50;5003352;28;20018;-59
2024/01/26 05:11:58;;;;;;;10.52;8.13;;;;;;;10.27;94.39;101938.78;4998248;28;20041;-59
2024/01/26 05:14:23;;;;;;;9.48;8.27;;;;;;;10.28;94.25;101943.25;5028804;28;20056;-60
2024/01/26 05:16:48;;;;;;;9.63;7.78;;;;;;;10.29;94.48;101939.41;5028188;28;20024;-59
2024/01/26 05:19:14;;;;;;;8.63;7.80;;;;;;;10.26;94.26;101931.53;4999956;28;20488;-59
2024/01/26 05:21:40;;;;;;;9.45;7.85;;;;;;;10.27;94.25;101916.59;5042520;28;20035;-59
2024/01/26 05:24:05;;;;;;;10.35;8.00;;;;;;;10.27;94.29;101927.69;5040869;28;20860;-59
2024/01/26 05:26:31;;;;;;;9.32;8.10;;;;;;;10.26;94.38;101918.53;5007991;28;20034;-59
2024/01/26 05:28:56;;;;;;;12.38;8.50;;;;;;;10.27;94.72;101923.00;4989337;28;20027;-60
2024/01/26 05:31:21;;;;;;;10.85;7.65;;;;;;;10.27;94.31;101914.66;4989624;28;20023;-60
2024/01/26 05:33:47;;;;;;;10.68;7.95;;;;;;;10.26;94.41;101896.31;5015686;28;20459;-60
2024/01/26 05:36:12;;;;;;;10.70;8.02;;;;;;;10.24;95.02;101894.81;5022783;28;20129;-60
2024/01/26 05:38:38;;;;;;;11.43;8.35;;;;;;;10.23;95.55;101891.19;5019648;28;20033;-60
2024/01/26 05:41:03;;;;;;;10.60;7.88;;;;;;;10.22;95.48;101878.41;5028402;28;20028;-60
2024/01/26 05:43:28;;;;;;;9.55;7.80;;;;;;;10.19;95.66;101883.53;5028405;28;20037;-60
2024/01/26 05:45:54;;;;;;;8.40;7.38;;;;;;;10.20;96.04;101874.97;5027749;28;20046;-60
2024/01/26 05:48:19;;;;;;;9.27;7.97;;;;;;;10.17;96.03;101880.13;5031209;28;20034;-60
2024/01/26 05:50:45;;;;;;;8.65;7.85;;;;;;;10.18;96.29;101887.38;5111031;28;20020;-59
2024/01/26 05:53:10;;;;;;;8.93;8.05;;;;;;;10.19;95.96;101889.09;5111254;28;20020;-59
2024/01/26 05:55:36;;;;;;;8.52;7.63;;;;;;;10.22;96.00;101875.63;5104777;28;20081;-59
2024/01/26 05:58:01;;;;;;;8.93;7.97;;;;;;;10.22;95.97;101869.22;5020252;28;20026;-59
2024/01/26 06:00:27;;;;;;;10.60;8.30;;;;;;;10.22;96.01;101872.00;5001266;28;20032;-60
2024/01/26 06:02:52;;;;;;;9.00;8.10;;;;;;;10.23;96.20;101874.53;5026131;28;20034;-59
2024/01/26 06:05:18;;;;;;;9.35;8.30;;;;;;;10.22;96.11;101863.69;4988312;28;20524;-59
2024/01/26 06:07:43;;;;;;;8.90;8.10;;;;;;;10.24;96.15;101861.50;5017787;28;20069;-60
2024/01/26 06:10:09;;;;;;;9.57;7.38;;;;;;;10.23;96.23;101870.91;5028602;28;20055;-59
2024/01/26 06:12:38;;;;;;;9.38;8.48;;;;;;;10.19;96.66;101867.75;5027379;28;20029;-59
2024/01/26 06:15:03;;;;;;;10.45;8.40;;;;;;;10.18;96.77;101860.50;5028237;28;20472;-59
2024/01/26 06:17:29;;;;;;;9.40;8.32;;;;;;;10.21;96.92;101850.84;5027728;28;20074;-58
2024/01/26 06:19:54;;;;;;;10.55;8.95;;;;;;;10.18;97.37;101849.41;5002615;28;20041;-59
2024/01/26 06:22:19;;;;;;;11.38;9.10;;;;;;;10.17;97.13;101856.00;4988597;28;20121;-58
2024/01/26 06:24:44;;;;;;;9.70;8.70;;;;;;;10.20;97.67;101838.06;4988733;28;20041;-58
2024/01/26 06:27:10;;;;;;;9.68;8.50;;;;;;;10.18;97.83;101838.31;5000029;28;20042;-58
2024/01/26 06:29:35;;;;;;;11.00;8.95;;;;;;;10.19;97.62;101859.41;5007495;28;20499;-59
2024/01/26 06:32:00;;;;;;;9.00;8.10;;;;;;;10.22;97.63;101855.34;5007920;28;20442;-58
2024/01/26 06:34:26;;;;;;;9.90;8.90;;;;;;;10.24;97.64;101853.19;5006113;28;20103;-58
2024/01/26 06:36:51;;;;;;;10.38;9.25;;;;;;;10.26;97.58;101857.47;5017044;28;20026;-59
2024/01/26 06:39:17;;;;;;;9.93;8.52;;;;;;;10.21;98.00;101859.19;5007632;28;20034;-59
2024/01/26 06:41:42;;;;;;;11.45;8.43;;;;;;;10.22;98.41;101849.81;5006836;28;20044;-59
2024/01/26 06:44:07;;;;;;;8.70;7.95;;;;;;;10.21;98.12;101860.03;5007740;28;20029;-59
2024/01/26 06:46:33;;;;;;;11.00;8.75;;;;;;;10.23;98.36;101852.34;5012896;28;20025;-59
2024/01/26 06:48:58;;;;;;;9.70;8.70;;;;;;;10.24;98.27;101865.13;5026859;28;20061;-60
2024/01/26 06:51:23;;;;;;;10.73;7.93;;;;;;;10.25;98.30;101854.91;5011338;28;20108;-59
2024/01/26 06:53:49;;;;;;;9.75;8.13;;;;;;;10.23;98.72;101843.16;5013605;28;20490;-60
2024/01/26 06:56:14;;;;;;;9.27;7.97;;;;;;;10.26;98.69;101845.53;5066744;28;20014;-60
2024/01/26 06:58:39;;;;;;;9.45;7.95;;;;;;;10.28;98.91;101832.25;5000799;28;20057;-60
2024/01/26 07:01:05;;;;;;;9.38;7.82;;;;;;;10.29;98.87;101840.34;4999757;28;20027;-60
2024/01/26 07:03:31;;;;;;;9.02;8.00;;;;;;;10.27;99.06;101833.34;4995552;28;20881;-60
2024/01/26 07:05:56;;;;;;;9.10;7.68;;;;;;;10.28;99.00;101843.34;5007530;28;20113;-60
2024/01/26 07:08:22;;;;;;;8.15;7.10;;;;;;;10.31;99.21;101843.75;5007288;28;20033;-60
2024/01/26 07:10:47;;;;;;;8.68;7.78;;;;;;;10.32;98.97;101841.81;5006105;28;20030;-60
2024/01/26 07:13:12;;;;;;;8.55;7.75;;;;;;;10.34;99.09;101825.81;5006194;28;20528;-60
2024/01/26 07:15:37;;;;;;;9.38;7.88;;;;;;;10.36;99.00;101822.81;5006649;28;20026;-60
2024/01/26 07:18:04;;;;;;;9.25;8.35;;;;;;;10.36;99.03;101823.66;5011070;28;20368;-60
2024/01/26 07:20:29;;;;;;;9.23;8.25;;;;;;;10.34;99.39;101814.72;5002473;28;20087;-60
2024/01/26 07:22:55;;;;;;;8.95;8.15;;;;;;;10.36;99.34;101822.81;5010322;28;20021;-61
2024/01/26 07:25:21;;;;;;;8.77;7.90;;;;;;;10.36;99.45;101828.34;5006996;28;20105;-61
2024/01/26 07:27:47;;;;;;;10.43;8.43;;;;;;;10.36;99.45;101829.19;5007531;28;20108;-60
2024/01/26 07:30:15;;;;;;;8.57;7.68;;;;;;;10.36;99.90;101818.09;5004364;28;20018;-61
2024/01/26 07:32:40;;;;;;;8.68;7.72;;;;;;;10.36;99.94;101806.16;5010190;28;20030;-60
2024/01/26 07:35:06;;;;;;;8.73;7.90;;;;;;;10.37;99.94;101814.22;5004195;28;20025;-60
2024/01/26 07:37:32;;;;;;;9.70;8.20;;;;;;;10.38;100.00;101815.97;5009039;28;20034;-60
2024/01/26 07:39:57;;;;;;;9.02;7.65;;;;;;;10.41;100.00;101814.63;5009678;28;20472;-60
2024/01/26 07:42:23;;;;;;;8.68;7.35;;;;;;;10.42;100.00;101819.97;5009029;28;20392;-60
2024/01/26 07:44:48;;;;;;;7.35;6.65;;;;;;;10.50;100.00;101803.03;4997294;28;20070;-58
2024/01/26 07:47:13;;;;;;;9.00;7.63;;;;;;;10.49;100.00;101822.66;5003104;28;20038;-60
2024/01/26 07:49:39;;;;;;;7.88;7.18;;;;;;;10.50;99.89;101824.38;5009609;28;20045;-60
2024/01/26 07:52:04;;;;;;;8.48;7.60;;;;;;;10.51;100.00;101829.69;5009295;28;20026;-60
2024/01/26 07:54:29;;;;;;;9.25;7.95;;;;;;;10.51;100.00;101832.47;5000252;28;20030;-61
2024/01/26 07:56:55;;;;;;;8.20;7.32;;;;;;;10.53;99.88;101851.66;4995591;28;20023;-60
2024/01/26 07:59:20;;;;;;;9.32;7.82;;;;;;;10.53;100.00;101848.88;5008162;28;20117;-61
2024/01/26 08:01:45;;;;;;;10.30;8.20;;;;;;;10.52;100.00;101864.69;5009192;28;20032;-60
2024/01/26 08:04:11;;;;;;;9.73;7.90;;;;;;;10.54;100.00;101859.78;5008961;28;20049;-60
2024/01/26 08:06:36;;;;;;;12.27;9.55;;;;;;;10.55;100.00;101872.56;5008830;28;20084;-61
2024/01/26 08:09:02;;;;;;;11.82;8.27;;;;;;;10.55;100.00;101867.03;5009306;28;20084;-60
2024/01/26 08:11:27;;;;;;;11.07;8.57;;;;;;;10.57;100.00;101864.88;5008641;28;20056;-61
2024/01/26 08:13:53;;;;;;;9.05;7.57;;;;;;;10.59;100.00;101867.41;5051446;28;20024;-60
2024/01/26 08:16:18;;;;;;;8.35;7.50;;;;;;;10.59;100.00;101864.63;5002937;28;20045;-60
2024/01/26 08:18:43;;;;;;;8.98;6.72;;;;;;;10.61;100.00;101873.59;5009204;28;20029;-60
2024/01/26 08:21:10;;;;;;;8.02;6.88;;;;;;;10.61;100.00;101872.72;5008043;28;20044;-60
2024/01/26 08:23:36;;;;;;;7.55;6.85;;;;;;;10.61;100.00;101864.41;5008776;28;20436;-60
2024/01/26 08:26:02;;;;;;;9.55;7.15;;;;;;;10.62;100.00;101866.13;5008535;28;20026;-60
2024/01/26 08:28:27;;;;;;;7.82;6.43;;;;;;;10.63;100.00;101868.66;5008528;28;20034;-58
2024/01/26 08:30:53;;;;;;;8.50;6.90;;;;;;;10.64;100.00;101866.72;5005637;28;20103;-58
2024/01/26 08:33:18;;;;;;;7.15;6.18;;;;;;;10.63;100.00;101857.53;4997601;28;20034;-58
2024/01/26 08:35:43;;;;;;;7.32;6.55;;;;;;;10.66;100.00;101879.31;5009350;28;20128;-59
2024/01/26 08:38:09;;;;;;;7.10;6.38;;;;;;;10.66;100.00;101875.69;5001544;28;20120;-60
2024/01/26 08:40:34;;;;;;;7.43;6.65;;;;;;;10.66;100.00;101882.09;5009877;28;20104;-59
2024/01/26 08:42:59;;;;;;;6.68;5.85;;;;;;;10.69;100.00;101877.97;5009051;28;20495;-59
2024/01/26 08:45:25;;;;;;;6.30;5.70;;;;;;;10.70;100.00;101888.03;5008778;28;20034;-60
2024/01/26 08:47:51;;;;;;;6.75;6.10;;;;;;;10.69;100.00;101884.41;5007617;28;20101;-59
2024/01/26 08:50:17;;;;;;;7.10;6.15;;;;;;;10.71;100.00;101878.63;5008724;28;20026;-59
2024/01/26 08:52:42;;;;;;;6.72;6.03;;;;;;;10.71;100.00;101879.47;5008705;28;20064;-59
2024/01/26 08:55:08;;;;;;;6.80;6.18;;;;;;;10.72;100.00;101883.09;5016093;28;20103;-59
2024/01/26 08:57:33;;;;;;;7.45;6.75;;;;;;;10.73;100.00;101885.66;5060679;28;20575;-59
2024/01/26 09:00:00;;;;;;;7.85;7.10;;;;;;;10.75;100.00;101880.69;5028398;28;20029;-59
2024/01/26 09:02:25;;;;;;;9.45;7.95;;;;;;;10.75;100.00;101885.41;5027124;28;20463;-59
2024/01/26 09:04:53;;;;;;;9.18;7.32;;;;;;;10.78;100.00;101882.19;5028289;28;20061;-59
2024/01/26 09:07:21;;;;;;;8.93;7.45;;;;;;;10.77;100.00;101888.81;5027783;28;20594;-60
2024/01/26 09:09:46;;;;;;;9.02;8.15;;;;;;;10.77;100.00;101884.13;5027800;28;20059;-60
2024/01/26 09:12:12;;;;;;;8.95;8.05;;;;;;;10.78;100.00;101896.91;5028138;28;20071;-60
2024/01/26 09:14:37;;;;;;;9.85;8.80;;;;;;;10.78;100.00;101909.94;5071981;28;20024;-59
2024/01/26 09:17:02;;;;;;;10.13;8.68;;;;;;;10.78;100.00;101927.47;5020651;28;20078;-59
2024/01/26 09:19:28;;;;;;;10.00;8.40;;;;;;;10.79;100.00;101936.63;5059983;28;20026;-58
2024/01/26 09:21:53;;;;;;;8.63;6.80;;;;;;;10.77;100.00;101941.59;5041914;28;20023;-60
2024/01/26 09:24:21;;;;;;;7.40;5.63;;;;;;;10.76;99.85;101950.97;5082193;28;20034;-59
2024/01/26 09:26:47;;;;;;;8.95;3.92;;;;;;;10.70;97.71;101957.44;5072827;28;20467;-59
2024/01/26 09:29:13;;;;;;;7.18;3.45;;;;;;;10.70;97.08;101951.91;5051340;28;20049;-59
2024/01/26 09:31:38;;;;;;;7.35;3.72;;;;;;;10.72;96.48;101978.34;5096922;28;20028;-60
2024/01/26 09:34:04;;;;;;;10.10;3.17;;;;;;;10.71;96.54;101962.75;5048117;28;20042;-58
2024/01/26 09:36:29;;;;;;;5.95;2.85;;;;;;;10.73;96.48;101962.56;5074373;28;20030;-59
2024/01/26 09:38:55;;;;;;;4.22;2.35;;;;;;;10.74;95.86;101969.81;5023985;28;20069;-59
2024/01/26 09:41:20;;;;;;;6.38;2.63;;;;;;;10.74;95.67;101980.91;4988287;28;20037;-59
2024/01/26 09:43:46;;;;;;;6.55;2.40;;;;;;;10.77;95.71;101992.41;4988016;28;20121;-59
2024/01/26 09:46:11;;;;;;;6.70;2.70;;;;;;;10.76;95.04;102006.50;4990524;28;20126;-59
2024/01/26 09:48:39;;;;;;;7.05;2.55;;;;;;;10.71;95.01;102026.63;4988472;28;20103;-59
2024/01/26 09:51:04;;;;;;;5.63;2.63;;;;;;;10.69;93.79;102053.78;5006029;28;20079;-59
2024/01/26 09:53:33;;;;;;;7.47;2.45;;;;;;;10.63;92.96;102073.25;4996074;28;20140;-59
2024/01/26 09:55:59;;;;;;;8.25;2.53;;;;;;;10.54;90.29;102081.88;5005729;28;20476;-59
2024/01/26 09:58:24;;;;;;;8.77;2.03;;;;;;;10.48;88.49;102099.41;5001611;28;20064;-59
2024/01/26 10:00:54;;;;;;;6.53;1.70;;;;;;;10.46;88.71;102109.88;5010466;28;20602;-59
2024/01/26 10:03:23;;;;;;;8.85;2.35;;;;;;;10.36;87.35;102115.03;5000253;28;20037;-59
2024/01/26 10:05:48;;;;;;;8.50;2.20;;;;;;;10.34;86.61;102121.91;4996275;28;20022;-59
2024/01/26 10:08:14;;;;;;;8.63;1.75;;;;;;;10.27;86.37;102133.03;5002554;28;20105;-59
2024/01/26 10:10:40;;;;;;;7.78;2.53;;;;;;;10.26;86.47;102134.97;5007651;28;20041;-59
2024/01/26 10:13:06;;;;;;;9.50;2.42;;;;;;;10.27;86.90;102144.97;5007252;28;20526;-59
2024/01/26 10:15:41;;;;;;;8.95;2.28;;;;;;;10.25;87.35;102147.09;5007400;28;20090;-60
2024/01/26 10:18:06;;;;;;;12.88;2.78;;;;;;;10.27;86.94;102146.91;5012392;28;20030;-59
2024/01/26 10:20:31;;;;;;;10.65;2.25;;;;;;;10.28;86.93;102148.59;5061914;28;20446;-61
2024/01/26 10:22:57;;;;;;;9.98;2.75;;;;;;;10.24;86.51;102158.41;4997047;28;20370;-59
2024/01/26 10:25:22;;;;;;;11.68;2.30;;;;;;;10.24;86.34;102175.91;5012849;28;20397;-59
2024/01/26 10:27:47;;;;;;;13.70;2.75;;;;;;;10.25;86.16;102168.47;5007393;28;20053;-61
2024/01/26 10:30:14;;;;;;;13.50;3.03;;;;;;;10.21;85.72;102175.50;4996369;28;20144;-59
2024/01/26 10:32:39;;;;;;;9.88;2.72;;;;;;;10.21;85.84;102187.44;5013761;28;20018;-59
2024/01/26 10:35:07;;;;;;;15.60;2.97;;;;;;;10.23;86.15;102176.13;5005194;28;20040;-59
2024/01/26 10:37:34;;;;;;;9.52;2.35;;;;;;;10.24;85.73;102192.56;5000391;28;20394;-60
2024/01/26 10:40:00;;;;;;;12.88;2.72;;;;;;;10.24;85.48;102197.25;5013576;28;20033;-59
2024/01/26 10:42:30;;;;;;;11.07;2.65;;;;;;;10.33;84.51;102201.53;4991302;28;20363;-59
2024/01/26 10:44:58;;;;;;;13.85;3.00;;;;;;;10.52;84.44;102208.06;4991581;28;20137;-59
2024/01/26 10:47:25;;;;;;;11.65;2.65;;;;;;;10.61;83.99;102217.00;4990656;28;20030;-59
2024/01/26 10:49:56;;;;;;;13.93;2.88;;;;;;;10.69;83.44;102216.75;4991478;28;20125;-59
2024/01/26 10:52:22;;;;;;;15.00;2.80;;;;;;;10.78;83.91;102230.19;4991228;28;20038;-59
2024/01/26 10:54:51;;;;;;;17.50;2.95;;;;;;;10.88;82.65;102238.03;4990675;28;20092;-59
2024/01/26 10:57:19;;;;;;;11.55;2.92;;;;;;;10.92;81.93;102250.38;5012002;28;20033;-59
2024/01/26 10:59:45;;;;;;;9.65;2.63;;;;;;;10.78;78.94;102259.88;5002391;28;20023;-59
2024/01/26 11:02:16;;;;;;;14.35;2.80;;;;;;;10.60;76.51;102234.75;5002803;28;20473;-59
2024/01/26 11:04:44;;;;;;;11.02;2.97;;;;;;;10.52;76.50;102271.94;4997465;28;20034;-60
2024/01/26 11:07:09;;;;;;;11.18;2.20;;;;;;;10.46;74.27;102279.22;5003937;28;20075;-61
2024/01/26 11:09:38;;;;;;;9.63;2.38;;;;;;;10.39;71.79;102286.69;4997258;28;20030;-60
2024/01/26 11:12:08;;;;;;;7.43;1.90;;;;;;;10.34;68.98;102297.59;5033833;28;20524;-60
2024/01/26 11:14:34;;;;;;;10.13;2.38;;;;;;;10.25;69.15;102305.28;5001913;28;20038;-60